Terminal Aerodrome Forecast
Issued by NWS Springfield, MO

Home | Current Version | Previous Version | Text Only | Print | Product List | Glossary On
Versions: 1 2 3 4 5 6 7 8 9 10 11 12 13 14 15 16 17 18
000
FTUS43 KSGF 170500
TAFSGF
TAF
KSGF 170527Z 1706/1806 VRB04KT P6SM BKN025 BKN200
     FM171200 VRB04KT 5SM BR BKN015
     FM171500 30007KT P6SM BKN025
     FM171700 32007KT P6SM SCT035
     FM180100 VRB05KT P6SM SKC=

USA.gov is the U.S. government's official web portal to all federal, state and local government web resources and services.